sensor_id;sensor_type;location;lat;lon;timestamp;P1;durP1;ratioP1;P2;durP2;ratioP2
57846;SDS011;43675;50.030;21.952;2023-04-24T00:00:45;18.60;;;17.10;;
57846;SDS011;43675;50.030;21.952;2023-04-24T00:03:24;18.50;;;16.90;;
57846;SDS011;43675;50.030;21.952;2023-04-24T00:05:50;19.20;;;17.30;;
57846;SDS011;43675;50.030;21.952;2023-04-24T00:08:18;18.70;;;16.90;;
57846;SDS011;43675;50.030;21.952;2023-04-24T00:10:44;18.40;;;16.90;;
57846;SDS011;43675;50.030;21.952;2023-04-24T00:13:11;19.10;;;17.50;;
57846;SDS011;43675;50.030;21.952;2023-04-24T00:15:38;18.10;;;16.70;;
57846;SDS011;43675;50.030;21.952;2023-04-24T00:18:04;18.10;;;16.60;;
57846;SDS011;43675;50.030;21.952;2023-04-24T00:20:31;17.80;;;16.40;;
57846;SDS011;43675;50.030;21.952;2023-04-24T00:22:58;19.20;;;17.50;;
57846;SDS011;43675;50.030;21.952;2023-04-24T00:25:24;18.50;;;16.90;;
57846;SDS011;43675;50.030;21.952;2023-04-24T00:27:51;18.00;;;16.50;;
57846;SDS011;43675;50.030;21.952;2023-04-24T00:30:17;18.40;;;16.80;;
57846;SDS011;43675;50.030;21.952;2023-04-24T00:32:44;18.50;;;16.90;;
57846;SDS011;43675;50.030;21.952;2023-04-24T00:35:10;18.80;;;17.00;;
57846;SDS011;43675;50.030;21.952;2023-04-24T00:37:37;18.90;;;17.20;;
57846;SDS011;43675;50.030;21.952;2023-04-24T00:40:04;19.70;;;17.90;;
57846;SDS011;43675;50.030;21.952;2023-04-24T00:42:31;19.00;;;17.40;;
57846;SDS011;43675;50.030;21.952;2023-04-24T00:44:57;18.50;;;16.60;;
57846;SDS011;43675;50.030;21.952;2023-04-24T00:47:25;20.80;;;16.80;;
57846;SDS011;43675;50.030;21.952;2023-04-24T00:49:51;18.50;;;16.60;;
57846;SDS011;43675;50.030;21.952;2023-04-24T00:52:18;18.30;;;16.70;;
57846;SDS011;43675;50.030;21.952;2023-04-24T00:54:44;17.60;;;16.10;;
57846;SDS011;43675;50.030;21.952;2023-04-24T00:57:11;18.30;;;16.50;;
57846;SDS011;43675;50.030;21.952;2023-04-24T00:59:40;17.50;;;16.10;;
57846;SDS011;43675;50.030;21.952;2023-04-24T01:02:08;18.10;;;16.50;;
57846;SDS011;43675;50.030;21.952;2023-04-24T01:04:36;18.30;;;16.80;;
57846;SDS011;43675;50.030;21.952;2023-04-24T01:07:03;17.90;;;16.40;;
57846;SDS011;43675;50.030;21.952;2023-04-24T01:09:30;18.50;;;17.00;;
57846;SDS011;43675;50.030;21.952;2023-04-24T01:11:57;18.70;;;17.20;;
57846;SDS011;43675;50.030;21.952;2023-04-24T01:14:24;17.80;;;16.50;;
57846;SDS011;43675;50.030;21.952;2023-04-24T01:16:50;18.40;;;16.60;;
57846;SDS011;43675;50.030;21.952;2023-04-24T01:19:17;18.40;;;16.80;;
57846;SDS011;43675;50.030;21.952;2023-04-24T01:21:45;17.70;;;16.20;;
57846;SDS011;43675;50.030;21.952;2023-04-24T01:24:16;19.40;;;17.00;;
57846;SDS011;43675;50.030;21.952;2023-04-24T01:26:43;18.30;;;16.70;;
57846;SDS011;43675;50.030;21.952;2023-04-24T01:29:10;18.00;;;16.40;;
57846;SDS011;43675;50.030;21.952;2023-04-24T01:31:36;18.70;;;17.00;;
57846;SDS011;43675;50.030;21.952;2023-04-24T01:34:04;18.00;;;16.40;;
57846;SDS011;43675;50.030;21.952;2023-04-24T01:36:31;17.80;;;16.40;;
57846;SDS011;43675;50.030;21.952;2023-04-24T01:38:59;18.50;;;16.80;;
57846;SDS011;43675;50.030;21.952;2023-04-24T01:41:25;18.70;;;17.10;;
57846;SDS011;43675;50.030;21.952;2023-04-24T01:43:52;19.10;;;17.60;;
57846;SDS011;43675;50.030;21.952;2023-04-24T01:46:20;18.70;;;17.10;;
57846;SDS011;43675;50.030;21.952;2023-04-24T01:48:46;18.70;;;17.10;;
57846;SDS011;43675;50.030;21.952;2023-04-24T01:51:14;17.80;;;16.30;;
57846;SDS011;43675;50.030;21.952;2023-04-24T01:53:40;18.20;;;16.60;;
57846;SDS011;43675;50.030;21.952;2023-04-24T01:56:07;17.90;;;16.50;;
57846;SDS011;43675;50.030;21.952;2023-04-24T01:58:33;18.40;;;16.60;;
57846;SDS011;43675;50.030;21.952;2023-04-24T02:01:00;17.80;;;16.30;;
57846;SDS011;43675;50.030;21.952;2023-04-24T02:03:27;18.00;;;16.40;;
57846;SDS011;43675;50.030;21.952;2023-04-24T02:05:53;18.10;;;16.50;;
57846;SDS011;43675;50.030;21.952;2023-04-24T02:08:20;18.30;;;16.50;;
57846;SDS011;43675;50.030;21.952;2023-04-24T02:10:46;19.10;;;17.20;;
57846;SDS011;43675;50.030;21.952;2023-04-24T02:13:13;17.70;;;16.30;;
57846;SDS011;43675;50.030;21.952;2023-04-24T02:15:39;18.90;;;17.10;;
57846;SDS011;43675;50.030;21.952;2023-04-24T02:18:06;18.30;;;16.90;;
57846;SDS011;43675;50.030;21.952;2023-04-24T02:20:32;19.40;;;17.70;;
57846;SDS011;43675;50.030;21.952;2023-04-24T02:22:59;18.10;;;16.60;;
57846;SDS011;43675;50.030;21.952;2023-04-24T02:25:25;19.00;;;17.30;;
57846;SDS011;43675;50.030;21.952;2023-04-24T02:27:52;19.60;;;17.90;;
57846;SDS011;43675;50.030;21.952;2023-04-24T02:30:19;19.40;;;17.80;;
57846;SDS011;43675;50.030;21.952;2023-04-24T02:32:45;18.90;;;17.30;;
57846;SDS011;43675;50.030;21.952;2023-04-24T02:35:12;18.50;;;17.00;;
57846;SDS011;43675;50.030;21.952;2023-04-24T02:37:38;19.20;;;17.40;;
57846;SDS011;43675;50.030;21.952;2023-04-24T02:40:05;18.90;;;17.20;;
57846;SDS011;43675;50.030;21.952;2023-04-24T02:42:32;18.50;;;17.00;;
57846;SDS011;43675;50.030;21.952;2023-04-24T02:44:59;18.50;;;16.70;;
57846;SDS011;43675;50.030;21.952;2023-04-24T02:47:25;18.90;;;17.30;;
57846;SDS011;43675;50.030;21.952;2023-04-24T02:49:52;19.20;;;17.50;;
57846;SDS011;43675;50.030;21.952;2023-04-24T02:52:18;18.70;;;17.30;;
57846;SDS011;43675;50.030;21.952;2023-04-24T02:54:45;18.90;;;17.30;;
57846;SDS011;43675;50.030;21.952;2023-04-24T02:57:11;19.20;;;17.70;;
57846;SDS011;43675;50.030;21.952;2023-04-24T02:59:38;19.30;;;17.40;;
57846;SDS011;43675;50.030;21.952;2023-04-24T03:02:04;18.70;;;17.20;;
57846;SDS011;43675;50.030;21.952;2023-04-24T03:04:31;18.50;;;16.90;;
57846;SDS011;43675;50.030;21.952;2023-04-24T03:06:58;19.30;;;17.40;;
57846;SDS011;43675;50.030;21.952;2023-04-24T03:09:24;18.90;;;17.20;;
57846;SDS011;43675;50.030;21.952;2023-04-24T03:11:51;18.70;;;17.00;;
57846;SDS011;43675;50.030;21.952;2023-04-24T03:14:17;18.30;;;16.80;;
57846;SDS011;43675;50.030;21.952;2023-04-24T03:16:44;18.30;;;16.70;;
57846;SDS011;43675;50.030;21.952;2023-04-24T03:19:11;19.10;;;17.50;;
57846;SDS011;43675;50.030;21.952;2023-04-24T03:21:37;18.50;;;16.90;;
57846;SDS011;43675;50.030;21.952;2023-04-24T03:24:04;18.40;;;16.80;;
57846;SDS011;43675;50.030;21.952;2023-04-24T03:26:31;19.40;;;17.40;;
57846;SDS011;43675;50.030;21.952;2023-04-24T03:28:57;20.40;;;18.20;;
57846;SDS011;43675;50.030;21.952;2023-04-24T03:31:24;19.50;;;17.70;;
57846;SDS011;43675;50.030;21.952;2023-04-24T03:33:50;19.80;;;18.20;;
57846;SDS011;43675;50.030;21.952;2023-04-24T03:36:17;20.10;;;18.10;;
57846;SDS011;43675;50.030;21.952;2023-04-24T03:38:43;19.30;;;17.80;;
57846;SDS011;43675;50.030;21.952;2023-04-24T03:41:10;19.50;;;18.00;;
57846;SDS011;43675;50.030;21.952;2023-04-24T03:43:37;19.90;;;18.30;;
57846;SDS011;43675;50.030;21.952;2023-04-24T03:46:04;20.10;;;18.30;;
57846;SDS011;43675;50.030;21.952;2023-04-24T03:48:31;20.80;;;19.00;;
57846;SDS011;43675;50.030;21.952;2023-04-24T03:50:57;19.70;;;18.10;;
57846;SDS011;43675;50.030;21.952;2023-04-24T03:53:24;20.40;;;17.90;;
57846;SDS011;43675;50.030;21.952;2023-04-24T03:55:50;19.80;;;18.10;;
57846;SDS011;43675;50.030;21.952;2023-04-24T03:58:17;18.80;;;17.00;;
57846;SDS011;43675;50.030;21.952;2023-04-24T04:00:43;18.90;;;17.20;;
57846;SDS011;43675;50.030;21.952;2023-04-24T04:03:10;18.70;;;17.00;;
57846;SDS011;43675;50.030;21.952;2023-04-24T04:05:36;18.80;;;17.30;;
57846;SDS011;43675;50.030;21.952;2023-04-24T04:08:03;19.00;;;17.40;;
57846;SDS011;43675;50.030;21.952;2023-04-24T04:10:29;19.80;;;18.10;;
57846;SDS011;43675;50.030;21.952;2023-04-24T04:12:56;19.20;;;17.60;;
57846;SDS011;43675;50.030;21.952;2023-04-24T04:15:23;19.50;;;18.00;;
57846;SDS011;43675;50.030;21.952;2023-04-24T04:17:49;20.00;;;18.50;;
57846;SDS011;43675;50.030;21.952;2023-04-24T04:20:16;20.40;;;18.70;;
57846;SDS011;43675;50.030;21.952;2023-04-24T04:22:42;20.00;;;18.30;;
57846;SDS011;43675;50.030;21.952;2023-04-24T04:25:09;20.50;;;18.40;;
57846;SDS011;43675;50.030;21.952;2023-04-24T04:27:36;18.90;;;17.30;;
57846;SDS011;43675;50.030;21.952;2023-04-24T04:30:02;19.10;;;17.50;;
57846;SDS011;43675;50.030;21.952;2023-04-24T04:32:30;20.00;;;18.10;;
57846;SDS011;43675;50.030;21.952;2023-04-24T04:34:57;19.70;;;18.10;;
57846;SDS011;43675;50.030;21.952;2023-04-24T04:37:24;19.50;;;17.70;;
57846;SDS011;43675;50.030;21.952;2023-04-24T04:39:50;20.10;;;18.40;;
57846;SDS011;43675;50.030;21.952;2023-04-24T04:42:17;20.80;;;19.00;;
57846;SDS011;43675;50.030;21.952;2023-04-24T04:44:43;20.00;;;18.30;;
57846;SDS011;43675;50.030;21.952;2023-04-24T04:47:10;20.20;;;18.20;;
57846;SDS011;43675;50.030;21.952;2023-04-24T04:49:37;20.30;;;18.50;;
57846;SDS011;43675;50.030;21.952;2023-04-24T04:52:04;20.10;;;18.30;;
57846;SDS011;43675;50.030;21.952;2023-04-24T04:54:31;19.60;;;17.60;;
57846;SDS011;43675;50.030;21.952;2023-04-24T04:56:57;18.90;;;17.40;;
57846;SDS011;43675;50.030;21.952;2023-04-24T04:59:24;20.40;;;18.40;;
57846;SDS011;43675;50.030;21.952;2023-04-24T05:01:51;19.50;;;17.60;;
57846;SDS011;43675;50.030;21.952;2023-04-24T05:04:17;19.80;;;18.10;;
57846;SDS011;43675;50.030;21.952;2023-04-24T05:06:44;20.40;;;18.70;;
57846;SDS011;43675;50.030;21.952;2023-04-24T05:09:10;19.60;;;18.00;;
57846;SDS011;43675;50.030;21.952;2023-04-24T05:11:37;19.80;;;18.10;;
57846;SDS011;43675;50.030;21.952;2023-04-24T05:14:03;20.00;;;18.10;;
57846;SDS011;43675;50.030;21.952;2023-04-24T05:16:30;20.00;;;18.30;;
57846;SDS011;43675;50.030;21.952;2023-04-24T05:18:56;20.00;;;18.40;;
57846;SDS011;43675;50.030;21.952;2023-04-24T05:21:23;21.30;;;19.50;;
57846;SDS011;43675;50.030;21.952;2023-04-24T05:23:50;20.60;;;18.70;;
57846;SDS011;43675;50.030;21.952;2023-04-24T05:26:16;20.70;;;18.80;;
57846;SDS011;43675;50.030;21.952;2023-04-24T05:28:43;20.50;;;18.70;;
57846;SDS011;43675;50.030;21.952;2023-04-24T05:31:09;20.50;;;18.60;;
57846;SDS011;43675;50.030;21.952;2023-04-24T05:33:36;20.90;;;18.80;;
57846;SDS011;43675;50.030;21.952;2023-04-24T05:36:02;21.50;;;19.40;;
57846;SDS011;43675;50.030;21.952;2023-04-24T05:38:29;20.10;;;18.50;;
57846;SDS011;43675;50.030;21.952;2023-04-24T05:40:56;20.40;;;18.50;;
57846;SDS011;43675;50.030;21.952;2023-04-24T05:43:22;20.30;;;18.40;;
57846;SDS011;43675;50.030;21.952;2023-04-24T05:45:49;20.70;;;18.70;;
57846;SDS011;43675;50.030;21.952;2023-04-24T05:48:15;21.30;;;19.50;;
57846;SDS011;43675;50.030;21.952;2023-04-24T05:50:42;23.10;;;20.80;;
57846;SDS011;43675;50.030;21.952;2023-04-24T05:53:08;20.40;;;18.50;;
57846;SDS011;43675;50.030;21.952;2023-04-24T05:55:35;22.00;;;20.20;;
57846;SDS011;43675;50.030;21.952;2023-04-24T05:58:01;19.70;;;18.00;;
57846;SDS011;43675;50.030;21.952;2023-04-24T06:00:28;19.80;;;18.10;;
57846;SDS011;43675;50.030;21.952;2023-04-24T06:02:55;18.90;;;17.40;;
57846;SDS011;43675;50.030;21.952;2023-04-24T06:05:21;21.00;;;19.40;;
57846;SDS011;43675;50.030;21.952;2023-04-24T06:07:48;21.20;;;19.30;;
57846;SDS011;43675;50.030;21.952;2023-04-24T06:10:14;21.80;;;20.10;;
57846;SDS011;43675;50.030;21.952;2023-04-24T06:12:41;22.30;;;20.40;;
57846;SDS011;43675;50.030;21.952;2023-04-24T06:15:08;22.20;;;20.30;;
57846;SDS011;43675;50.030;21.952;2023-04-24T06:17:35;21.70;;;19.80;;
57846;SDS011;43675;50.030;21.952;2023-04-24T06:20:02;22.70;;;20.50;;
57846;SDS011;43675;50.030;21.952;2023-04-24T06:22:29;20.30;;;18.50;;
57846;SDS011;43675;50.030;21.952;2023-04-24T06:24:55;21.30;;;18.10;;
57846;SDS011;43675;50.030;21.952;2023-04-24T06:27:22;19.70;;;17.60;;
57846;SDS011;43675;50.030;21.952;2023-04-24T06:29:48;18.70;;;17.20;;
57846;SDS011;43675;50.030;21.952;2023-04-24T06:32:15;20.30;;;18.50;;
57846;SDS011;43675;50.030;21.952;2023-04-24T06:34:42;20.60;;;18.50;;
57846;SDS011;43675;50.030;21.952;2023-04-24T06:37:08;19.80;;;18.10;;
57846;SDS011;43675;50.030;21.952;2023-04-24T06:39:35;19.50;;;17.90;;
57846;SDS011;43675;50.030;21.952;2023-04-24T06:42:01;21.20;;;19.00;;
57846;SDS011;43675;50.030;21.952;2023-04-24T06:44:28;19.50;;;18.00;;
57846;SDS011;43675;50.030;21.952;2023-04-24T06:46:54;20.00;;;18.20;;
57846;SDS011;43675;50.030;21.952;2023-04-24T06:49:21;19.60;;;17.80;;
57846;SDS011;43675;50.030;21.952;2023-04-24T06:51:47;19.80;;;18.00;;
57846;SDS011;43675;50.030;21.952;2023-04-24T06:54:14;19.40;;;17.70;;
57846;SDS011;43675;50.030;21.952;2023-04-24T06:56:40;19.40;;;17.70;;
57846;SDS011;43675;50.030;21.952;2023-04-24T06:59:07;19.40;;;18.00;;
57846;SDS011;43675;50.030;21.952;2023-04-24T07:01:33;20.10;;;18.30;;
57846;SDS011;43675;50.030;21.952;2023-04-24T07:04:00;19.80;;;18.10;;
57846;SDS011;43675;50.030;21.952;2023-04-24T07:06:26;20.50;;;18.60;;
57846;SDS011;43675;50.030;21.952;2023-04-24T07:08:53;20.90;;;18.90;;
57846;SDS011;43675;50.030;21.952;2023-04-24T07:11:20;19.00;;;17.40;;
57846;SDS011;43675;50.030;21.952;2023-04-24T07:13:46;20.30;;;18.60;;
57846;SDS011;43675;50.030;21.952;2023-04-24T07:16:13;20.40;;;18.50;;
57846;SDS011;43675;50.030;21.952;2023-04-24T07:18:39;19.70;;;17.90;;
57846;SDS011;43675;50.030;21.952;2023-04-24T07:21:06;20.00;;;18.00;;
57846;SDS011;43675;50.030;21.952;2023-04-24T07:23:32;20.60;;;18.80;;
57846;SDS011;43675;50.030;21.952;2023-04-24T07:25:59;20.20;;;18.50;;
57846;SDS011;43675;50.030;21.952;2023-04-24T07:28:25;20.00;;;18.40;;
57846;SDS011;43675;50.030;21.952;2023-04-24T07:30:52;20.50;;;18.70;;
57846;SDS011;43675;50.030;21.952;2023-04-24T07:33:21;20.30;;;18.60;;
57846;SDS011;43675;50.030;21.952;2023-04-24T07:35:47;19.60;;;17.90;;
57846;SDS011;43675;50.030;21.952;2023-04-24T07:38:14;19.40;;;17.90;;
57846;SDS011;43675;50.030;21.952;2023-04-24T07:40:41;19.60;;;17.90;;
57846;SDS011;43675;50.030;21.952;2023-04-24T07:43:07;19.20;;;17.70;;
57846;SDS011;43675;50.030;21.952;2023-04-24T07:45:34;19.90;;;18.10;;
57846;SDS011;43675;50.030;21.952;2023-04-24T07:48:01;20.10;;;18.40;;
57846;SDS011;43675;50.030;21.952;2023-04-24T07:50:27;20.60;;;18.80;;
57846;SDS011;43675;50.030;21.952;2023-04-24T07:52:54;20.40;;;18.60;;
57846;SDS011;43675;50.030;21.952;2023-04-24T07:55:20;19.80;;;18.30;;
57846;SDS011;43675;50.030;21.952;2023-04-24T07:57:47;20.60;;;18.80;;
57846;SDS011;43675;50.030;21.952;2023-04-24T08:00:14;20.90;;;19.00;;
57846;SDS011;43675;50.030;21.952;2023-04-24T08:02:41;21.20;;;19.20;;
57846;SDS011;43675;50.030;21.952;2023-04-24T08:05:07;20.10;;;18.50;;
57846;SDS011;43675;50.030;21.952;2023-04-24T08:07:34;20.50;;;18.90;;
57846;SDS011;43675;50.030;21.952;2023-04-24T08:10:01;20.30;;;18.50;;
57846;SDS011;43675;50.030;21.952;2023-04-24T08:12:28;20.50;;;18.90;;
57846;SDS011;43675;50.030;21.952;2023-04-24T08:14:55;19.80;;;18.00;;
57846;SDS011;43675;50.030;21.952;2023-04-24T08:17:22;20.10;;;18.40;;
57846;SDS011;43675;50.030;21.952;2023-04-24T08:19:48;19.50;;;18.00;;
57846;SDS011;43675;50.030;21.952;2023-04-24T08:22:15;20.20;;;18.50;;
57846;SDS011;43675;50.030;21.952;2023-04-24T08:24:41;20.20;;;18.70;;
57846;SDS011;43675;50.030;21.952;2023-04-24T08:27:08;20.00;;;18.40;;
57846;SDS011;43675;50.030;21.952;2023-04-24T08:29:34;20.40;;;18.70;;
57846;SDS011;43675;50.030;21.952;2023-04-24T08:32:01;19.00;;;17.60;;
57846;SDS011;43675;50.030;21.952;2023-04-24T08:34:28;19.60;;;18.10;;
57846;SDS011;43675;50.030;21.952;2023-04-24T08:36:54;19.90;;;18.10;;
57846;SDS011;43675;50.030;21.952;2023-04-24T08:39:21;19.40;;;17.60;;
57846;SDS011;43675;50.030;21.952;2023-04-24T08:41:48;19.70;;;17.70;;
57846;SDS011;43675;50.030;21.952;2023-04-24T08:44:15;19.60;;;17.90;;
57846;SDS011;43675;50.030;21.952;2023-04-24T08:46:43;18.70;;;17.00;;
57846;SDS011;43675;50.030;21.952;2023-04-24T08:49:10;19.20;;;17.60;;
57846;SDS011;43675;50.030;21.952;2023-04-24T08:51:37;19.60;;;18.10;;
57846;SDS011;43675;50.030;21.952;2023-04-24T08:54:04;19.80;;;18.20;;
57846;SDS011;43675;50.030;21.952;2023-04-24T08:56:31;20.20;;;18.30;;
57846;SDS011;43675;50.030;21.952;2023-04-24T08:59:00;19.70;;;18.10;;
57846;SDS011;43675;50.030;21.952;2023-04-24T09:01:27;19.80;;;18.20;;
57846;SDS011;43675;50.030;21.952;2023-04-24T09:03:54;19.00;;;17.50;;
57846;SDS011;43675;50.030;21.952;2023-04-24T09:06:21;20.30;;;18.30;;
57846;SDS011;43675;50.030;21.952;2023-04-24T09:08:48;18.90;;;17.10;;
57846;SDS011;43675;50.030;21.952;2023-04-24T09:11:19;19.10;;;17.40;;
57846;SDS011;43675;50.030;21.952;2023-04-24T09:13:45;19.10;;;17.40;;
57846;SDS011;43675;50.030;21.952;2023-04-24T09:16:14;19.10;;;17.40;;
57846;SDS011;43675;50.030;21.952;2023-04-24T09:18:41;18.60;;;17.10;;
57846;SDS011;43675;50.030;21.952;2023-04-24T09:21:08;19.20;;;17.30;;
57846;SDS011;43675;50.030;21.952;2023-04-24T09:23:35;19.40;;;17.80;;
57846;SDS011;43675;50.030;21.952;2023-04-24T09:26:02;19.90;;;18.30;;
57846;SDS011;43675;50.030;21.952;2023-04-24T09:28:30;21.70;;;19.70;;
57846;SDS011;43675;50.030;21.952;2023-04-24T09:31:09;20.10;;;18.30;;
57846;SDS011;43675;50.030;21.952;2023-04-24T09:33:38;19.60;;;18.00;;
57846;SDS011;43675;50.030;21.952;2023-04-24T09:36:04;20.00;;;18.30;;
57846;SDS011;43675;50.030;21.952;2023-04-24T09:38:32;20.00;;;18.40;;
57846;SDS011;43675;50.030;21.952;2023-04-24T09:41:04;20.00;;;18.30;;
57846;SDS011;43675;50.030;21.952;2023-04-24T09:43:33;19.90;;;17.90;;
57846;SDS011;43675;50.030;21.952;2023-04-24T09:46:04;19.30;;;17.80;;
57846;SDS011;43675;50.030;21.952;2023-04-24T09:48:32;20.10;;;18.20;;
57846;SDS011;43675;50.030;21.952;2023-04-24T09:51:02;19.80;;;18.00;;
57846;SDS011;43675;50.030;21.952;2023-04-24T09:53:30;18.80;;;17.20;;
57846;SDS011;43675;50.030;21.952;2023-04-24T09:56:07;19.30;;;17.80;;
57846;SDS011;43675;50.030;21.952;2023-04-24T09:58:37;19.80;;;18.20;;
57846;SDS011;43675;50.030;21.952;2023-04-24T10:01:04;18.80;;;17.10;;
57846;SDS011;43675;50.030;21.952;2023-04-24T10:03:31;19.20;;;17.70;;
57846;SDS011;43675;50.030;21.952;2023-04-24T10:05:59;19.00;;;17.30;;
57846;SDS011;43675;50.030;21.952;2023-04-24T10:08:32;19.30;;;17.50;;
57846;SDS011;43675;50.030;21.952;2023-04-24T10:11:00;19.50;;;17.80;;
57846;SDS011;43675;50.030;21.952;2023-04-24T10:13:27;19.60;;;17.90;;
57846;SDS011;43675;50.030;21.952;2023-04-24T10:15:54;19.20;;;17.70;;
57846;SDS011;43675;50.030;21.952;2023-04-24T10:18:22;20.70;;;18.70;;
57846;SDS011;43675;50.030;21.952;2023-04-24T10:20:50;19.60;;;18.20;;
57846;SDS011;43675;50.030;21.952;2023-04-24T10:23:18;19.30;;;17.80;;
57846;SDS011;43675;50.030;21.952;2023-04-24T10:25:45;20.00;;;17.90;;
57846;SDS011;43675;50.030;21.952;2023-04-24T10:28:12;19.70;;;18.00;;
57846;SDS011;43675;50.030;21.952;2023-04-24T10:30:40;19.50;;;17.80;;
57846;SDS011;43675;50.030;21.952;2023-04-24T10:33:09;19.80;;;18.10;;
57846;SDS011;43675;50.030;21.952;2023-04-24T10:35:41;20.80;;;18.20;;
57846;SDS011;43675;50.030;21.952;2023-04-24T10:38:12;19.70;;;18.00;;
57846;SDS011;43675;50.030;21.952;2023-04-24T10:40:40;19.00;;;17.40;;
57846;SDS011;43675;50.030;21.952;2023-04-24T10:43:08;19.10;;;17.60;;
57846;SDS011;43675;50.030;21.952;2023-04-24T10:45:35;20.80;;;17.70;;
57846;SDS011;43675;50.030;21.952;2023-04-24T10:50:41;24.50;;;22.30;;
57846;SDS011;43675;50.030;21.952;2023-04-24T10:53:12;23.30;;;21.20;;
57846;SDS011;43675;50.030;21.952;2023-04-24T10:55:45;22.40;;;20.20;;
57846;SDS011;43675;50.030;21.952;2023-04-24T10:58:14;23.40;;;20.60;;
57846;SDS011;43675;50.030;21.952;2023-04-24T11:00:41;19.60;;;17.90;;
57846;SDS011;43675;50.030;21.952;2023-04-24T11:03:29;19.90;;;18.10;;
57846;SDS011;43675;50.030;21.952;2023-04-24T11:06:08;20.20;;;18.40;;
57846;SDS011;43675;50.030;21.952;2023-04-24T11:08:39;30.30;;;19.40;;
57846;SDS011;43675;50.030;21.952;2023-04-24T11:11:12;18.90;;;17.20;;
57846;SDS011;43675;50.030;21.952;2023-04-24T11:16:25;77.70;;;21.40;;
57846;SDS011;43675;50.030;21.952;2023-04-24T11:19:09;20.10;;;17.90;;
57846;SDS011;43675;50.030;21.952;2023-04-24T11:26:58;20.80;;;17.10;;
57846;SDS011;43675;50.030;21.952;2023-04-24T11:32:19;19.40;;;17.50;;
57846;SDS011;43675;50.030;21.952;2023-04-24T11:35:08;23.80;;;17.90;;
57846;SDS011;43675;50.030;21.952;2023-04-24T11:37:49;19.90;;;18.10;;
57846;SDS011;43675;50.030;21.952;2023-04-24T11:40:18;20.50;;;18.40;;
57846;SDS011;43675;50.030;21.952;2023-04-24T11:42:46;19.30;;;17.20;;
57846;SDS011;43675;50.030;21.952;2023-04-24T11:45:14;19.40;;;17.80;;
57846;SDS011;43675;50.030;21.952;2023-04-24T11:47:43;19.20;;;17.60;;
57846;SDS011;43675;50.030;21.952;2023-04-24T11:50:11;19.60;;;17.60;;
57846;SDS011;43675;50.030;21.952;2023-04-24T11:52:40;18.60;;;16.90;;
57846;SDS011;43675;50.030;21.952;2023-04-24T11:55:12;18.80;;;17.20;;
57846;SDS011;43675;50.030;21.952;2023-04-24T11:57:50;16.90;;;15.60;;
57846;SDS011;43675;50.030;21.952;2023-04-24T12:00:28;17.20;;;15.90;;
57846;SDS011;43675;50.030;21.952;2023-04-24T12:03:09;18.80;;;17.00;;
57846;SDS011;43675;50.030;21.952;2023-04-24T12:05:37;17.50;;;16.00;;
57846;SDS011;43675;50.030;21.952;2023-04-24T12:08:04;17.60;;;16.30;;
57846;SDS011;43675;50.030;21.952;2023-04-24T12:10:32;19.50;;;17.60;;
57846;SDS011;43675;50.030;21.952;2023-04-24T12:12:59;20.30;;;18.10;;
57846;SDS011;43675;50.030;21.952;2023-04-24T12:15:26;18.90;;;17.10;;
57846;SDS011;43675;50.030;21.952;2023-04-24T12:17:53;17.60;;;16.20;;
57846;SDS011;43675;50.030;21.952;2023-04-24T12:20:25;18.60;;;17.10;;
57846;SDS011;43675;50.030;21.952;2023-04-24T12:22:58;19.30;;;16.90;;
57846;SDS011;43675;50.030;21.952;2023-04-24T12:25:27;20.10;;;17.70;;
57846;SDS011;43675;50.030;21.952;2023-04-24T12:28:08;17.40;;;15.70;;
57846;SDS011;43675;50.030;21.952;2023-04-24T12:30:48;18.70;;;16.20;;
57846;SDS011;43675;50.030;21.952;2023-04-24T12:33:18;18.40;;;16.90;;
57846;SDS011;43675;50.030;21.952;2023-04-24T12:35:45;17.90;;;16.10;;
57846;SDS011;43675;50.030;21.952;2023-04-24T12:38:14;17.60;;;16.30;;
57846;SDS011;43675;50.030;21.952;2023-04-24T12:40:41;109.50;;;22.20;;
57846;SDS011;43675;50.030;21.952;2023-04-24T12:43:15;18.60;;;17.00;;
57846;SDS011;43675;50.030;21.952;2023-04-24T12:45:47;25.80;;;18.00;;
57846;SDS011;43675;50.030;21.952;2023-04-24T12:48:14;18.80;;;17.10;;
57846;SDS011;43675;50.030;21.952;2023-04-24T12:50:41;19.30;;;17.60;;
57846;SDS011;43675;50.030;21.952;2023-04-24T12:53:08;19.20;;;17.50;;
57846;SDS011;43675;50.030;21.952;2023-04-24T12:55:35;23.60;;;17.30;;
57846;SDS011;43675;50.030;21.952;2023-04-24T12:58:01;19.10;;;17.10;;
57846;SDS011;43675;50.030;21.952;2023-04-24T13:00:28;18.60;;;16.90;;
57846;SDS011;43675;50.030;21.952;2023-04-24T13:02:54;18.50;;;16.70;;
57846;SDS011;43675;50.030;21.952;2023-04-24T13:05:22;18.10;;;16.50;;
57846;SDS011;43675;50.030;21.952;2023-04-24T13:07:48;16.80;;;15.50;;
57846;SDS011;43675;50.030;21.952;2023-04-24T13:10:15;16.90;;;15.60;;
57846;SDS011;43675;50.030;21.952;2023-04-24T13:12:41;16.30;;;15.20;;
57846;SDS011;43675;50.030;21.952;2023-04-24T13:15:08;17.20;;;15.90;;
57846;SDS011;43675;50.030;21.952;2023-04-24T13:17:34;16.20;;;15.10;;
57846;SDS011;43675;50.030;21.952;2023-04-24T13:20:01;17.70;;;16.40;;
57846;SDS011;43675;50.030;21.952;2023-04-24T13:22:28;16.70;;;15.40;;
57846;SDS011;43675;50.030;21.952;2023-04-24T13:24:54;17.20;;;15.80;;
57846;SDS011;43675;50.030;21.952;2023-04-24T13:27:21;17.10;;;15.80;;
57846;SDS011;43675;50.030;21.952;2023-04-24T13:29:47;17.30;;;15.80;;
57846;SDS011;43675;50.030;21.952;2023-04-24T13:32:14;17.90;;;16.60;;
57846;SDS011;43675;50.030;21.952;2023-04-24T13:34:41;17.20;;;16.00;;
57846;SDS011;43675;50.030;21.952;2023-04-24T13:37:07;18.10;;;16.60;;
57846;SDS011;43675;50.030;21.952;2023-04-24T13:39:34;18.20;;;16.90;;
57846;SDS011;43675;50.030;21.952;2023-04-24T13:42:00;18.70;;;17.30;;
57846;SDS011;43675;50.030;21.952;2023-04-24T13:44:27;18.00;;;16.60;;
57846;SDS011;43675;50.030;21.952;2023-04-24T13:46:54;17.70;;;16.10;;
57846;SDS011;43675;50.030;21.952;2023-04-24T13:49:21;17.90;;;16.60;;
57846;SDS011;43675;50.030;21.952;2023-04-24T13:51:48;17.90;;;16.60;;
57846;SDS011;43675;50.030;21.952;2023-04-24T13:54:14;18.40;;;16.90;;
57846;SDS011;43675;50.030;21.952;2023-04-24T13:56:41;17.50;;;16.10;;
57846;SDS011;43675;50.030;21.952;2023-04-24T13:59:08;17.90;;;16.60;;
57846;SDS011;43675;50.030;21.952;2023-04-24T14:01:35;18.20;;;16.80;;
57846;SDS011;43675;50.030;21.952;2023-04-24T14:04:01;16.80;;;15.60;;
57846;SDS011;43675;50.030;21.952;2023-04-24T14:06:28;17.40;;;16.10;;
57846;SDS011;43675;50.030;21.952;2023-04-24T14:08:54;17.70;;;16.50;;
57846;SDS011;43675;50.030;21.952;2023-04-24T14:11:21;17.30;;;15.90;;
57846;SDS011;43675;50.030;21.952;2023-04-24T14:13:47;16.90;;;15.60;;
57846;SDS011;43675;50.030;21.952;2023-04-24T14:16:15;16.70;;;15.50;;
57846;SDS011;43675;50.030;21.952;2023-04-24T14:18:41;16.80;;;15.40;;
57846;SDS011;43675;50.030;21.952;2023-04-24T14:21:08;17.30;;;15.80;;
57846;SDS011;43675;50.030;21.952;2023-04-24T14:23:34;16.80;;;15.60;;